createdAt,value
2022-09-03T00:00:04.440Z,38.74
2022-09-03T00:00:35.864Z,38.99
2022-09-03T00:01:07.508Z,39.26
2022-09-03T00:01:39.009Z,39.29
2022-09-03T00:02:10.519Z,38.99
2022-09-03T00:02:42.033Z,38.97
2022-09-03T00:03:13.489Z,39.16
2022-09-03T00:03:44.929Z,39.08
2022-09-03T00:04:16.355Z,38.84
2022-09-03T00:04:53.820Z,39.26
2022-09-03T00:05:25.252Z,39.19
2022-09-03T00:05:56.684Z,39.15
2022-09-03T00:06:28.226Z,39.17
2022-09-03T00:06:59.665Z,39.05
2022-09-03T00:07:31.092Z,39.14
2022-09-03T00:08:02.517Z,38.83
2022-09-03T00:08:33.951Z,38.95
2022-09-03T00:09:06.202Z,39.02
2022-09-03T00:09:38.138Z,39.24
2022-09-03T00:10:09.576Z,38.86
2022-09-03T00:10:41.917Z,39.15
2022-09-03T00:11:13.355Z,38.90
2022-09-03T00:11:44.845Z,39.26
2022-09-03T00:12:16.277Z,39.04
2022-09-03T00:12:47.702Z,38.98
2022-09-03T00:13:19.148Z,39.06
2022-09-03T00:13:50.573Z,39.10
2022-09-03T00:14:22.000Z,38.86
2022-09-03T00:14:53.428Z,39.20
2022-09-03T00:15:24.848Z,39.24
2022-09-03T00:15:56.304Z,38.83
2022-09-03T00:16:27.848Z,39.26
2022-09-03T00:16:59.381Z,39.23
2022-09-03T00:17:30.813Z,38.94
2022-09-03T00:18:02.238Z,39.06
2022-09-03T00:18:33.668Z,38.89
2022-09-03T00:19:05.108Z,39.35
2022-09-03T00:19:36.531Z,39.26
2022-09-03T00:20:07.955Z,39.24
2022-09-03T00:20:39.393Z,38.90
2022-09-03T00:21:11.587Z,39.27
2022-09-03T00:21:43.018Z,39.19
2022-09-03T00:22:14.501Z,39.14
2022-09-03T00:22:45.943Z,39.33
2022-09-03T00:23:17.372Z,39.29
2022-09-03T00:23:48.859Z,38.71
2022-09-03T00:24:20.279Z,38.83
2022-09-03T00:24:51.706Z,39.36
2022-09-03T00:25:23.132Z,39.21
2022-09-03T00:25:58.101Z,39.38
2022-09-03T00:26:29.533Z,38.86
2022-09-03T00:27:00.965Z,39.03
2022-09-03T00:27:32.449Z,39.30
2022-09-03T00:28:03.886Z,38.91
2022-09-03T00:28:35.332Z,38.95
2022-09-03T00:29:06.757Z,38.93
2022-09-03T00:29:38.195Z,38.89
2022-09-03T00:30:09.628Z,38.85
2022-09-03T00:30:42.626Z,39.08
2022-09-03T00:31:14.144Z,39.30
2022-09-03T00:31:45.638Z,39.09
2022-09-03T00:32:17.074Z,39.37
2022-09-03T00:32:48.560Z,38.87
2022-09-03T00:33:19.983Z,38.95
2022-09-03T00:33:51.414Z,39.02
2022-09-03T00:34:22.845Z,39.06
2022-09-03T00:34:54.273Z,39.25
2022-09-03T00:35:25.705Z,39.43
2022-09-03T00:35:57.136Z,39.46
2022-09-03T00:36:28.572Z,39.05
2022-09-03T00:37:00.001Z,38.92
2022-09-03T00:37:33.729Z,39.04
2022-09-03T00:38:09.925Z,39.22
2022-09-03T00:38:41.358Z,39.16
2022-09-03T00:39:12.800Z,39.05
2022-09-03T00:39:44.355Z,39.13
2022-09-03T00:40:15.835Z,39.26
2022-09-03T00:40:47.269Z,39.11
2022-09-03T00:41:18.705Z,38.94
2022-09-03T00:41:50.133Z,39.19
2022-09-03T00:42:21.574Z,39.18
2022-09-03T00:42:53.026Z,39.23
2022-09-03T00:43:24.457Z,39.06
2022-09-03T00:43:55.888Z,39.48
2022-09-03T00:44:27.321Z,39.19
2022-09-03T00:44:58.751Z,39.07
2022-09-03T00:45:30.176Z,39.31
2022-09-03T00:46:01.632Z,39.52
2022-09-03T00:46:33.154Z,39.15
2022-09-03T00:47:05.336Z,38.89
2022-09-03T00:47:36.769Z,39.61
2022-09-03T00:48:08.313Z,39.25
2022-09-03T00:48:39.736Z,39.23
2022-09-03T00:49:11.173Z,39.51
2022-09-03T00:49:42.603Z,39.05
2022-09-03T00:50:14.031Z,39.01
2022-09-03T00:50:45.470Z,39.44
2022-09-03T00:51:16.906Z,39.13
2022-09-03T00:51:48.339Z,39.31
2022-09-03T00:52:19.773Z,39.38
2022-09-03T00:52:54.812Z,39.18
2022-09-03T00:53:26.245Z,39.11
2022-09-03T00:53:57.668Z,39.54
2022-09-03T00:54:29.096Z,38.94
2022-09-03T00:55:00.529Z,39.35
2022-09-03T00:55:31.957Z,39.44
2022-09-03T00:56:03.384Z,39.09
2022-09-03T00:56:34.823Z,39.14
2022-09-03T00:57:06.244Z,39.18
2022-09-03T00:57:37.671Z,38.86
2022-09-03T00:58:09.118Z,39.19
2022-09-03T00:58:42.203Z,38.99
2022-09-03T00:59:13.629Z,38.87
2022-09-03T00:59:45.062Z,39.50
2022-09-03T01:00:16.492Z,39.29
2022-09-03T01:00:47.942Z,39.10
2022-09-03T01:01:19.408Z,39.33
2022-09-03T01:01:50.939Z,39.08
2022-09-03T01:02:22.561Z,39.31
2022-09-03T01:02:54.090Z,39.30
2022-09-03T01:03:25.580Z,39.00
2022-09-03T01:03:57.011Z,39.24
2022-09-03T01:04:28.451Z,39.60
2022-09-03T01:04:59.885Z,39.25
2022-09-03T01:05:31.313Z,39.41
2022-09-03T01:06:02.743Z,39.50
2022-09-03T01:06:34.167Z,39.48
2022-09-03T01:07:05.598Z,39.40
2022-09-03T01:07:37.027Z,39.05
2022-09-03T01:08:08.457Z,39.58
2022-09-03T01:08:39.977Z,39.01
2022-09-03T01:09:13.667Z,39.47
2022-09-03T01:09:45.096Z,39.19
2022-09-03T01:10:16.518Z,38.96
2022-09-03T01:10:47.944Z,39.56
2022-09-03T01:11:19.376Z,39.22
2022-09-03T01:11:50.804Z,38.83
2022-09-03T01:12:22.236Z,39.34
2022-09-03T01:12:53.668Z,39.06
2022-09-03T01:13:25.090Z,39.56
2022-09-03T01:13:58.877Z,39.47
2022-09-03T01:14:30.301Z,39.24
2022-09-03T01:15:01.728Z,39.05
2022-09-03T01:15:33.175Z,39.38
2022-09-03T01:16:04.711Z,39.16
2022-09-03T01:16:36.223Z,39.01
2022-09-03T01:17:07.649Z,39.31
2022-09-03T01:17:39.084Z,39.51
2022-09-03T01:18:10.506Z,39.13
2022-09-03T01:18:41.938Z,39.14
2022-09-03T01:19:13.395Z,39.39
2022-09-03T01:19:44.900Z,39.15
2022-09-03T01:20:16.323Z,39.62
2022-09-03T01:20:47.754Z,39.04
2022-09-03T01:21:19.186Z,39.25
2022-09-03T01:21:50.619Z,39.22
2022-09-03T01:22:22.111Z,39.68
2022-09-03T01:22:53.545Z,39.54
2022-09-03T01:23:24.971Z,39.03
2022-09-03T01:23:56.397Z,39.30
2022-09-03T01:24:27.892Z,39.39
2022-09-03T01:25:00.579Z,39.37
2022-09-03T01:25:32.069Z,39.67
2022-09-03T01:26:03.512Z,39.04
2022-09-03T01:26:34.948Z,39.65
2022-09-03T01:27:06.385Z,39.47
2022-09-03T01:27:37.824Z,39.49
2022-09-03T01:28:09.253Z,39.30
2022-09-03T01:28:40.708Z,39.49
2022-09-03T01:29:12.128Z,39.69
2022-09-03T01:29:43.596Z,39.67
2022-09-03T01:30:15.036Z,39.32
2022-09-03T01:30:46.531Z,39.30
2022-09-03T01:31:18.031Z,39.45
2022-09-03T01:31:49.486Z,39.07
2022-09-03T01:32:20.920Z,39.43
2022-09-03T01:32:52.353Z,39.30
2022-09-03T01:33:23.783Z,39.44
2022-09-03T01:33:55.234Z,39.51
2022-09-03T01:34:26.664Z,39.49
2022-09-03T01:34:58.182Z,39.64
2022-09-03T01:35:29.679Z,39.72
2022-09-03T01:36:01.110Z,39.28
2022-09-03T01:36:32.541Z,39.68
2022-09-03T01:37:03.971Z,39.60
2022-09-03T01:37:35.404Z,39.47
2022-09-03T01:38:06.833Z,39.52
2022-09-03T01:38:38.256Z,39.30
2022-09-03T01:39:09.683Z,39.39
2022-09-03T01:39:41.163Z,39.25
2022-09-03T01:40:12.747Z,39.48
2022-09-03T01:40:44.180Z,39.77
2022-09-03T01:41:15.611Z,39.30
2022-09-03T01:41:47.045Z,39.24
2022-09-03T01:42:20.365Z,39.68
2022-09-03T01:42:52.456Z,39.41
2022-09-03T01:43:23.880Z,39.17
2022-09-03T01:43:55.313Z,39.65
2022-09-03T01:44:26.741Z,39.65
2022-09-03T01:44:58.177Z,39.50
2022-09-03T01:45:29.655Z,39.63
2022-09-03T01:46:01.101Z,39.22
2022-09-03T01:46:32.926Z,39.21
2022-09-03T01:47:04.514Z,39.28
2022-09-03T01:47:35.947Z,39.61
2022-09-03T01:48:07.380Z,39.24
2022-09-03T01:48:38.809Z,39.36
2022-09-03T01:49:10.241Z,39.49
2022-09-03T01:49:41.676Z,39.75
2022-09-03T01:50:13.104Z,39.85
2022-09-03T01:50:44.644Z,39.50
2022-09-03T01:51:16.079Z,39.70
2022-09-03T01:51:47.522Z,39.59
2022-09-03T01:52:18.954Z,39.54
2022-09-03T01:52:50.391Z,39.52
2022-09-03T01:53:21.825Z,39.79
2022-09-03T01:53:53.256Z,39.52
2022-09-03T01:54:24.687Z,39.84
2022-09-03T01:54:56.118Z,39.31
2022-09-03T01:55:27.549Z,39.33
2022-09-03T01:55:59.109Z,39.58
2022-09-03T01:56:30.531Z,39.99
2022-09-03T01:57:01.995Z,39.77
2022-09-03T01:57:35.746Z,39.29
2022-09-03T01:58:08.644Z,39.25
2022-09-03T01:58:40.074Z,39.47
2022-09-03T01:59:11.563Z,39.89
2022-09-03T01:59:42.994Z,39.70
2022-09-03T02:00:14.423Z,39.42
2022-09-03T02:00:45.844Z,39.54
2022-09-03T02:01:18.114Z,39.74
2022-09-03T02:01:49.818Z,39.61
2022-09-03T02:02:21.368Z,39.49
2022-09-03T02:02:52.954Z,39.78
2022-09-03T02:03:24.411Z,39.61
2022-09-03T02:03:55.841Z,39.51
2022-09-03T02:04:27.269Z,39.94
2022-09-03T02:04:58.697Z,39.69
2022-09-03T02:05:30.128Z,39.54
2022-09-03T02:06:01.557Z,39.56
2022-09-03T02:06:33.064Z,39.55
2022-09-03T02:07:04.501Z,39.88
2022-09-03T02:07:35.931Z,39.61
2022-09-03T02:08:07.379Z,39.40
2022-09-03T02:08:38.808Z,39.74
2022-09-03T02:09:10.237Z,39.73
2022-09-03T02:09:41.669Z,39.80
2022-09-03T02:10:13.095Z,39.69
2022-09-03T02:10:44.521Z,39.50
2022-09-03T02:11:15.946Z,39.72
2022-09-03T02:11:47.638Z,39.67
2022-09-03T02:12:19.069Z,39.61
2022-09-03T02:12:50.507Z,39.93
2022-09-03T02:13:21.932Z,40.08
2022-09-03T02:13:53.353Z,39.74
2022-09-03T02:14:24.780Z,39.74
2022-09-03T02:14:56.216Z,39.67
2022-09-03T02:15:27.681Z,40.06
2022-09-03T02:15:59.260Z,39.79
2022-09-03T02:16:30.721Z,40.03
2022-09-03T02:17:02.207Z,39.59
2022-09-03T02:17:33.636Z,39.93
2022-09-03T02:18:05.063Z,39.99
2022-09-03T02:18:36.498Z,39.87
2022-09-03T02:19:07.925Z,39.54
2022-09-03T02:19:39.355Z,40.04
2022-09-03T02:20:10.783Z,39.64
2022-09-03T02:20:42.209Z,39.47
2022-09-03T02:21:13.637Z,39.82
2022-09-03T02:21:45.069Z,39.53
2022-09-03T02:22:16.576Z,39.99
2022-09-03T02:22:48.006Z,39.73
2022-09-03T02:23:19.449Z,39.60
2022-09-03T02:23:59.086Z,39.58
2022-09-03T02:24:30.530Z,40.01
2022-09-03T02:25:01.971Z,39.63
2022-09-03T02:25:33.407Z,39.56
2022-09-03T02:26:04.840Z,39.84
2022-09-03T02:26:36.284Z,39.98
2022-09-03T02:27:07.713Z,40.25
2022-09-03T02:27:39.236Z,39.97
2022-09-03T02:28:17.448Z,40.11
2022-09-03T02:28:49.270Z,39.86
2022-09-03T02:29:20.708Z,40.09
2022-09-03T02:29:52.141Z,39.70
2022-09-03T02:30:23.571Z,39.57
2022-09-03T02:30:55.053Z,40.14
2022-09-03T02:31:26.562Z,40.15
2022-09-03T02:31:58.035Z,39.72
2022-09-03T02:32:29.452Z,39.72
2022-09-03T02:33:00.912Z,40.11
2022-09-03T02:33:32.341Z,39.98
2022-09-03T02:34:03.768Z,39.63
2022-09-03T02:34:35.205Z,40.01
2022-09-03T02:35:06.647Z,40.10
2022-09-03T02:35:38.083Z,39.94
2022-09-03T02:36:09.514Z,39.79
2022-09-03T02:36:40.959Z,39.92
2022-09-03T02:37:12.394Z,39.88
2022-09-03T02:37:43.909Z,40.03
2022-09-03T02:38:15.340Z,39.91
2022-09-03T02:38:46.764Z,40.21
2022-09-03T02:39:18.246Z,40.35
2022-09-03T02:39:49.736Z,39.69
2022-09-03T02:40:21.195Z,40.28
2022-09-03T02:40:52.621Z,39.74
2022-09-03T02:41:24.044Z,39.73
2022-09-03T02:41:55.516Z,40.00
2022-09-03T02:42:26.952Z,39.84
2022-09-03T02:42:58.481Z,40.20
2022-09-03T02:43:29.916Z,39.90
2022-09-03T02:44:01.335Z,39.98
2022-09-03T02:44:32.762Z,40.30
2022-09-03T02:45:04.191Z,40.26
2022-09-03T02:45:35.629Z,39.69
2022-09-03T02:46:07.106Z,39.81
2022-09-03T02:46:38.580Z,40.03
2022-09-03T02:47:10.012Z,39.83
2022-09-03T02:47:41.435Z,40.15
2022-09-03T02:48:12.945Z,39.91
2022-09-03T02:48:44.434Z,39.80
2022-09-03T02:49:15.869Z,40.13
2022-09-03T02:49:47.295Z,39.97
2022-09-03T02:50:18.722Z,40.51
2022-09-03T02:50:50.169Z,39.79
2022-09-03T02:51:21.600Z,39.95
2022-09-03T02:51:53.063Z,40.09
2022-09-03T02:52:24.492Z,40.21
2022-09-03T02:52:55.924Z,39.87
2022-09-03T02:53:27.372Z,40.23
2022-09-03T02:53:58.865Z,40.17
2022-09-03T02:54:30.292Z,39.96
2022-09-03T02:55:01.716Z,40.13
2022-09-03T02:55:33.147Z,40.16
2022-09-03T02:56:04.578Z,39.88
2022-09-03T02:56:36.003Z,40.18
2022-09-03T02:57:07.440Z,40.03
2022-09-03T02:57:38.871Z,40.18
2022-09-03T02:58:10.294Z,39.93
2022-09-03T02:58:41.780Z,40.19
2022-09-03T02:59:13.203Z,40.22
2022-09-03T02:59:44.639Z,40.33
2022-09-03T03:00:16.069Z,40.20
2022-09-03T03:00:47.500Z,40.17
2022-09-03T03:01:23.639Z,39.97
2022-09-03T03:01:55.476Z,40.05
2022-09-03T03:02:26.960Z,40.16
2022-09-03T03:02:58.416Z,40.08
2022-09-03T03:03:29.849Z,40.28
2022-09-03T03:04:01.320Z,40.40
2022-09-03T03:04:32.747Z,40.18
2022-09-03T03:05:04.186Z,40.03
2022-09-03T03:05:35.616Z,39.85
2022-09-03T03:06:07.049Z,39.87
2022-09-03T03:06:38.472Z,40.22
2022-09-03T03:07:09.909Z,40.28
2022-09-03T03:07:41.340Z,40.39
2022-09-03T03:08:12.769Z,40.11
2022-09-03T03:08:44.205Z,40.34
2022-09-03T03:09:15.771Z,40.33
2022-09-03T03:09:47.204Z,39.90
2022-09-03T03:10:18.637Z,39.93
2022-09-03T03:10:50.088Z,40.32
2022-09-03T03:11:21.516Z,40.59
2022-09-03T03:11:52.939Z,40.08
2022-09-03T03:12:24.368Z,40.22
2022-09-03T03:12:55.800Z,40.38
2022-09-03T03:13:27.234Z,40.41
2022-09-03T03:13:58.657Z,40.03
2022-09-03T03:14:30.214Z,40.51
2022-09-03T03:15:01.654Z,40.58
2022-09-03T03:15:33.080Z,40.13
2022-09-03T03:16:04.516Z,40.04
2022-09-03T03:16:35.967Z,40.38
2022-09-03T03:17:07.481Z,40.13
2022-09-03T03:17:38.930Z,40.41
2022-09-03T03:18:10.351Z,40.07
2022-09-03T03:18:41.777Z,40.27
2022-09-03T03:19:13.208Z,39.96
2022-09-03T03:19:44.663Z,40.33
2022-09-03T03:20:16.120Z,40.23
2022-09-03T03:20:47.604Z,40.55
2022-09-03T03:21:19.023Z,40.25
2022-09-03T03:21:50.455Z,40.17
2022-09-03T03:22:21.916Z,40.31
2022-09-03T03:22:53.365Z,40.35
2022-09-03T03:23:24.797Z,39.98
2022-09-03T03:23:56.223Z,40.02
2022-09-03T03:24:27.660Z,40.25
2022-09-03T03:24:59.157Z,39.99
2022-09-03T03:25:30.587Z,40.26
2022-09-03T03:26:02.025Z,40.03
2022-09-03T03:26:33.448Z,40.22
2022-09-03T03:27:04.877Z,40.25
2022-09-03T03:27:36.309Z,40.09
2022-09-03T03:28:08.760Z,40.09
2022-09-03T03:28:40.192Z,40.52
2022-09-03T03:29:12.305Z,40.41
2022-09-03T03:29:43.749Z,40.46
2022-09-03T03:30:15.268Z,40.43
2022-09-03T03:30:46.761Z,40.48
2022-09-03T03:31:18.271Z,40.38
2022-09-03T03:31:49.778Z,40.62
2022-09-03T03:32:21.203Z,40.09
2022-09-03T03:32:52.657Z,40.53
2022-09-03T03:33:24.104Z,40.23
2022-09-03T03:33:55.533Z,40.52
2022-09-03T03:34:26.974Z,40.56
2022-09-03T03:34:58.497Z,40.26
2022-09-03T03:35:29.934Z,40.46
2022-09-03T03:36:01.356Z,40.11
2022-09-03T03:36:32.872Z,40.56
2022-09-03T03:37:04.291Z,40.64
2022-09-03T03:37:35.714Z,40.47
2022-09-03T03:38:07.136Z,40.51
2022-09-03T03:38:38.565Z,40.68
2022-09-03T03:39:11.266Z,40.65
2022-09-03T03:39:42.909Z,40.43
2022-09-03T03:40:14.406Z,40.51
2022-09-03T03:40:45.846Z,40.27
2022-09-03T03:41:17.285Z,40.30
2022-09-03T03:41:48.726Z,40.53
2022-09-03T03:42:20.152Z,40.07
2022-09-03T03:42:51.571Z,40.21
2022-09-03T03:43:22.998Z,40.07
2022-09-03T03:43:54.435Z,40.35
2022-09-03T03:44:25.865Z,40.79
2022-09-03T03:44:57.324Z,40.44
2022-09-03T03:45:28.845Z,40.54
2022-09-03T03:46:00.307Z,40.70
2022-09-03T03:46:31.782Z,40.50
2022-09-03T03:47:03.220Z,40.47
2022-09-03T03:47:34.650Z,40.22
2022-09-03T03:48:06.071Z,40.30
2022-09-03T03:48:37.588Z,40.39
2022-09-03T03:49:09.024Z,40.43
2022-09-03T03:49:40.453Z,40.76
2022-09-03T03:50:11.884Z,40.52
2022-09-03T03:50:43.436Z,40.47
2022-09-03T03:51:14.860Z,40.22
2022-09-03T03:51:46.286Z,40.56
2022-09-03T03:52:17.722Z,40.44
2022-09-03T03:52:49.216Z,40.21
2022-09-03T03:53:20.642Z,40.26
2022-09-03T03:53:52.069Z,40.40
2022-09-03T03:54:23.497Z,40.32
2022-09-03T03:54:55.554Z,40.22
2022-09-03T03:55:27.228Z,40.34
2022-09-03T03:55:58.732Z,40.62
2022-09-03T03:56:30.169Z,40.54
2022-09-03T03:57:01.597Z,40.75
2022-09-03T03:57:33.037Z,40.54
2022-09-03T03:58:04.470Z,40.62
2022-09-03T03:58:35.895Z,40.17
2022-09-03T03:59:07.326Z,40.67
2022-09-03T03:59:38.754Z,40.36
2022-09-03T04:00:10.183Z,40.21
2022-09-03T04:00:41.660Z,40.41
2022-09-03T04:01:13.153Z,40.82
2022-09-03T04:01:44.650Z,40.58
2022-09-03T04:02:16.132Z,40.40
2022-09-03T04:02:47.613Z,40.16
2022-09-03T04:03:19.087Z,40.70
2022-09-03T04:03:50.515Z,40.61
2022-09-03T04:04:21.956Z,40.71
2022-09-03T04:04:53.409Z,40.66
2022-09-03T04:05:24.832Z,40.94
2022-09-03T04:05:56.289Z,40.55
2022-09-03T04:06:27.724Z,40.85
2022-09-03T04:06:59.157Z,40.37
2022-09-03T04:07:30.596Z,40.64
2022-09-03T04:08:02.331Z,40.67
2022-09-03T04:08:33.752Z,40.60
2022-09-03T04:09:05.260Z,40.44
2022-09-03T04:09:36.692Z,40.45
2022-09-03T04:10:08.120Z,40.60
2022-09-03T04:10:39.568Z,40.48
2022-09-03T04:11:11.044Z,40.58
2022-09-03T04:11:42.472Z,40.35
2022-09-03T04:12:13.904Z,40.89
2022-09-03T04:12:45.336Z,40.96
2022-09-03T04:13:16.772Z,40.69
2022-09-03T04:13:48.208Z,40.42
2022-09-03T04:14:19.733Z,40.60
2022-09-03T04:14:51.169Z,40.36
2022-09-03T04:15:22.595Z,40.59
2022-09-03T04:15:54.011Z,40.48
2022-09-03T04:16:25.594Z,40.64
2022-09-03T04:16:57.167Z,40.52
2022-09-03T04:17:28.671Z,40.86
2022-09-03T04:18:00.109Z,40.54
2022-09-03T04:18:31.538Z,40.54
2022-09-03T04:19:02.960Z,40.74
2022-09-03T04:19:34.389Z,40.69
2022-09-03T04:20:05.812Z,40.74
2022-09-03T04:20:37.232Z,40.49
2022-09-03T04:21:08.660Z,40.75
2022-09-03T04:21:40.153Z,40.42
2022-09-03T04:22:11.589Z,40.80
2022-09-03T04:22:43.028Z,41.00
2022-09-03T04:23:14.460Z,40.66
2022-09-03T04:23:45.890Z,40.62
2022-09-03T04:24:17.322Z,41.04
2022-09-03T04:24:48.748Z,40.68
2022-09-03T04:25:20.177Z,40.47
2022-09-03T04:25:51.604Z,40.44
2022-09-03T04:26:23.193Z,40.84
2022-09-03T04:26:54.627Z,40.74
2022-09-03T04:27:26.059Z,41.07
2022-09-03T04:27:57.488Z,40.44
2022-09-03T04:28:28.920Z,40.50
2022-09-03T04:29:00.844Z,40.63
2022-09-03T04:29:32.876Z,40.78
2022-09-03T04:30:04.349Z,40.44
2022-09-03T04:30:36.054Z,41.07
2022-09-03T04:31:07.632Z,40.76
2022-09-03T04:31:39.293Z,40.53
2022-09-03T04:32:11.589Z,41.02
2022-09-03T04:32:43.023Z,40.77
2022-09-03T04:33:16.075Z,40.58
2022-09-03T04:33:47.929Z,41.07
2022-09-03T04:34:19.364Z,41.02
2022-09-03T04:34:50.801Z,41.10
2022-09-03T04:35:22.233Z,41.14
2022-09-03T04:35:53.664Z,41.20
2022-09-03T04:36:25.105Z,40.88
2022-09-03T04:36:56.556Z,41.01
2022-09-03T04:37:27.993Z,41.02
2022-09-03T04:37:59.424Z,40.75
2022-09-03T04:38:30.902Z,40.87
2022-09-03T04:39:02.396Z,40.94
2022-09-03T04:39:33.864Z,41.15
2022-09-03T04:40:05.388Z,40.52
2022-09-03T04:40:36.855Z,41.03
2022-09-03T04:41:08.282Z,40.67
2022-09-03T04:41:39.764Z,41.10
2022-09-03T04:42:11.195Z,40.88
2022-09-03T04:42:42.630Z,40.74
2022-09-03T04:43:14.062Z,40.43
2022-09-03T04:43:45.495Z,40.62
2022-09-03T04:44:22.862Z,40.89
2022-09-03T04:44:54.302Z,40.92
2022-09-03T04:45:25.738Z,40.69
2022-09-03T04:45:57.228Z,40.69
2022-09-03T04:46:28.721Z,40.65
2022-09-03T04:47:00.281Z,40.60
2022-09-03T04:47:31.711Z,41.05
2022-09-03T04:48:03.140Z,40.62
2022-09-03T04:48:34.575Z,40.86
2022-09-03T04:49:09.209Z,40.77
2022-09-03T04:49:40.640Z,40.73
2022-09-03T04:50:12.077Z,40.71
2022-09-03T04:50:43.503Z,41.04
2022-09-03T04:51:14.950Z,40.99
2022-09-03T04:51:46.393Z,40.65
2022-09-03T04:52:18.028Z,41.16
2022-09-03T04:52:49.469Z,41.06
2022-09-03T04:53:20.908Z,41.01
2022-09-03T04:53:52.330Z,40.80
2022-09-03T04:54:23.781Z,40.59
2022-09-03T04:55:00.669Z,40.72
2022-09-03T04:55:32.113Z,40.57
2022-09-03T04:56:03.544Z,40.50
2022-09-03T04:56:34.970Z,41.00
2022-09-03T04:57:06.387Z,40.72
2022-09-03T04:57:37.941Z,40.93
2022-09-03T04:58:09.379Z,40.67
2022-09-03T04:58:40.852Z,40.58
2022-09-03T04:59:15.544Z,40.87
2022-09-03T04:59:46.972Z,40.79
2022-09-03T05:00:18.396Z,40.91
2022-09-03T05:00:50.677Z,40.55
2022-09-03T05:01:22.230Z,40.62
2022-09-03T05:01:53.766Z,40.61
2022-09-03T05:02:25.301Z,41.06
2022-09-03T05:02:56.792Z,40.51
2022-09-03T05:03:28.221Z,40.83
2022-09-03T05:03:59.651Z,40.67
2022-09-03T05:04:31.071Z,40.47
2022-09-03T05:05:02.499Z,40.64
2022-09-03T05:05:33.938Z,40.44
2022-09-03T05:06:05.382Z,40.44
2022-09-03T05:06:38.536Z,40.44
2022-09-03T05:07:09.975Z,40.36
2022-09-03T05:07:41.403Z,40.88
2022-09-03T05:08:12.897Z,40.68
2022-09-03T05:08:44.329Z,40.30
2022-09-03T05:09:15.751Z,40.53
2022-09-03T05:09:47.176Z,40.87
2022-09-03T05:10:18.617Z,40.71
2022-09-03T05:10:50.128Z,40.75
2022-09-03T05:11:26.489Z,40.31
2022-09-03T05:11:57.926Z,40.74
2022-09-03T05:12:29.357Z,40.61
2022-09-03T05:13:00.779Z,40.39
2022-09-03T05:13:32.286Z,40.57
2022-09-03T05:14:03.712Z,40.65
2022-09-03T05:14:35.153Z,40.60
2022-09-03T05:15:06.589Z,40.54
2022-09-03T05:15:38.020Z,40.22
2022-09-03T05:16:09.482Z,40.69
2022-09-03T05:16:41.046Z,40.45
2022-09-03T05:17:12.564Z,40.60
2022-09-03T05:17:43.991Z,40.18
2022-09-03T05:18:15.473Z,40.65
2022-09-03T05:18:47.086Z,40.54
2022-09-03T05:19:18.533Z,40.41
2022-09-03T05:19:49.978Z,40.42
2022-09-03T05:20:21.408Z,40.64
2022-09-03T05:20:53.738Z,40.51
2022-09-03T05:21:25.169Z,40.38
2022-09-03T05:21:56.600Z,40.17
2022-09-03T05:22:28.038Z,40.80
2022-09-03T05:22:59.469Z,40.75
2022-09-03T05:23:35.514Z,40.73
2022-09-03T05:24:08.999Z,40.46
2022-09-03T05:24:40.494Z,40.51
2022-09-03T05:25:11.970Z,40.44
2022-09-03T05:25:43.401Z,40.53
2022-09-03T05:26:14.835Z,40.49
2022-09-03T05:26:46.266Z,40.54
2022-09-03T05:27:17.701Z,40.52
2022-09-03T05:27:49.138Z,40.55
2022-09-03T05:28:20.566Z,40.21
2022-09-03T05:28:51.997Z,40.19
2022-09-03T05:29:23.467Z,40.77
2022-09-03T05:29:54.906Z,40.66
2022-09-03T05:30:26.337Z,40.59
2022-09-03T05:30:57.762Z,40.95
2022-09-03T05:31:29.287Z,40.55
2022-09-03T05:32:00.809Z,40.31
2022-09-03T05:32:32.315Z,40.60
2022-09-03T05:33:03.747Z,40.54
2022-09-03T05:33:35.177Z,40.86
2022-09-03T05:34:06.606Z,40.57
2022-09-03T05:34:38.037Z,40.86
2022-09-03T05:35:09.464Z,40.51
2022-09-03T05:35:40.897Z,40.63
2022-09-03T05:36:12.320Z,40.27
2022-09-03T05:36:43.749Z,40.30
2022-09-03T05:37:15.189Z,40.89
2022-09-03T05:37:46.616Z,40.64
2022-09-03T05:38:18.039Z,40.48
2022-09-03T05:38:49.477Z,40.75
2022-09-03T05:39:21.006Z,40.46
2022-09-03T05:39:52.524Z,40.39
2022-09-03T05:40:24.009Z,40.23
2022-09-03T05:40:55.457Z,40.81
2022-09-03T05:41:26.894Z,40.60
2022-09-03T05:41:58.321Z,40.19
2022-09-03T05:42:29.747Z,40.67
2022-09-03T05:43:03.362Z,40.75
2022-09-03T05:43:37.996Z,40.48
2022-09-03T05:44:09.543Z,40.29
2022-09-03T05:44:40.977Z,40.46
2022-09-03T05:45:12.404Z,40.49
2022-09-03T05:45:43.857Z,40.66
2022-09-03T05:46:15.331Z,40.39
2022-09-03T05:46:46.757Z,40.31
2022-09-03T05:47:18.183Z,40.52
2022-09-03T05:47:49.609Z,40.49
2022-09-03T05:48:21.105Z,40.25
2022-09-03T05:48:52.827Z,40.61
2022-09-03T05:49:24.316Z,40.43
2022-09-03T05:49:55.754Z,40.63
2022-09-03T05:50:27.205Z,40.65
2022-09-03T05:50:58.651Z,40.64
2022-09-03T05:51:30.071Z,40.22
2022-09-03T05:52:01.509Z,40.69
2022-09-03T05:52:32.947Z,40.76
2022-09-03T05:53:04.384Z,40.57
2022-09-03T05:53:35.815Z,40.65
2022-09-03T05:54:07.258Z,40.29
2022-09-03T05:54:38.713Z,40.87
2022-09-03T05:55:13.263Z,40.32
2022-09-03T05:55:45.012Z,40.71
2022-09-03T05:56:16.440Z,40.50
2022-09-03T05:56:47.872Z,40.60
2022-09-03T05:57:19.304Z,40.51
2022-09-03T05:57:50.737Z,40.82
2022-09-03T05:58:22.173Z,40.90
2022-09-03T05:58:53.599Z,40.65
2022-09-03T05:59:25.027Z,40.88
2022-09-03T05:59:56.568Z,40.71
2022-09-03T06:00:28.062Z,40.50
2022-09-03T06:00:59.508Z,40.31
2022-09-03T06:01:30.980Z,40.92
2022-09-03T06:02:02.510Z,40.72
2022-09-03T06:02:34.090Z,40.72
2022-09-03T06:03:05.708Z,41.04
2022-09-03T06:03:37.325Z,40.63
2022-09-03T06:04:08.861Z,40.59
2022-09-03T06:04:40.287Z,40.92
2022-09-03T06:05:11.822Z,40.97
2022-09-03T06:05:43.257Z,40.53
2022-09-03T06:06:17.337Z,40.45
2022-09-03T06:06:48.764Z,40.51
2022-09-03T06:07:20.194Z,41.04
2022-09-03T06:07:51.620Z,40.75
2022-09-03T06:08:23.052Z,40.76
2022-09-03T06:08:54.480Z,41.07
2022-09-03T06:09:25.907Z,40.63
2022-09-03T06:09:57.332Z,40.75
2022-09-03T06:10:36.452Z,40.88
2022-09-03T06:11:11.756Z,41.00
2022-09-03T06:11:43.199Z,40.73
2022-09-03T06:12:14.635Z,41.00
2022-09-03T06:12:47.256Z,40.91
2022-09-03T06:13:18.851Z,40.85
2022-09-03T06:13:50.331Z,41.06
2022-09-03T06:14:21.761Z,41.04
2022-09-03T06:14:53.198Z,40.78
2022-09-03T06:15:24.675Z,41.00
2022-09-03T06:15:56.125Z,41.01
2022-09-03T06:16:30.539Z,41.29
2022-09-03T06:17:03.662Z,41.24
2022-09-03T06:17:35.098Z,40.63
2022-09-03T06:18:06.532Z,40.85
2022-09-03T06:18:37.965Z,41.03
2022-09-03T06:19:09.401Z,40.89
2022-09-03T06:19:40.831Z,40.60
2022-09-03T06:20:12.262Z,41.09
2022-09-03T06:20:43.756Z,41.02
2022-09-03T06:21:15.181Z,40.69
2022-09-03T06:21:46.613Z,40.95
2022-09-03T06:22:18.054Z,40.55
2022-09-03T06:22:49.488Z,41.14
2022-09-03T06:23:20.921Z,41.28
2022-09-03T06:23:52.355Z,41.16
2022-09-03T06:24:26.465Z,40.80
2022-09-03T06:24:59.896Z,40.72
2022-09-03T06:25:31.503Z,41.01
2022-09-03T06:26:05.323Z,40.92
2022-09-03T06:26:37.090Z,41.07
2022-09-03T06:27:08.513Z,40.92
2022-09-03T06:27:40.235Z,41.24
2022-09-03T06:28:11.664Z,41.24
2022-09-03T06:28:43.099Z,40.72
2022-09-03T06:29:14.536Z,40.86
2022-09-03T06:29:45.968Z,40.83
2022-09-03T06:30:17.400Z,40.84
2022-09-03T06:30:48.871Z,41.32
2022-09-03T06:31:20.405Z,40.79
2022-09-03T06:31:51.905Z,40.79
2022-09-03T06:32:23.386Z,41.06
2022-09-03T06:32:54.816Z,41.26
2022-09-03T06:33:26.247Z,41.26
2022-09-03T06:34:02.041Z,40.86
2022-09-03T06:34:35.377Z,41.06
2022-09-03T06:35:06.812Z,41.10
2022-09-03T06:35:42.962Z,41.10
2022-09-03T06:36:14.871Z,40.93
2022-09-03T06:36:46.303Z,40.83
2022-09-03T06:37:17.736Z,41.02
2022-09-03T06:37:49.170Z,41.35
2022-09-03T06:38:20.614Z,41.08
2022-09-03T06:38:52.048Z,40.93
2022-09-03T06:39:23.559Z,40.82
2022-09-03T06:39:55.075Z,40.72
2022-09-03T06:40:26.539Z,40.78
2022-09-03T06:40:57.971Z,40.95
2022-09-03T06:41:30.218Z,41.15
2022-09-03T06:42:01.724Z,40.71
2022-09-03T06:42:33.158Z,40.89
2022-09-03T06:43:04.593Z,40.94
2022-09-03T06:43:36.032Z,41.03
2022-09-03T06:44:07.460Z,41.11
2022-09-03T06:44:38.903Z,40.83
2022-09-03T06:45:10.658Z,40.61
2022-09-03T06:45:43.587Z,40.99
2022-09-03T06:46:15.057Z,40.75
2022-09-03T06:46:46.581Z,40.83
2022-09-03T06:47:18.009Z,40.87